createdAt,value
2019-06-20T00:02:18.720Z,18.43
2019-06-20T00:05:26.238Z,18.40
2019-06-20T00:08:33.708Z,18.37
2019-06-20T00:11:40.984Z,18.40
2019-06-20T00:14:48.747Z,18.34
2019-06-20T00:17:56.150Z,18.32
2019-06-20T00:21:03.556Z,18.31
2019-06-20T00:24:11.067Z,18.28
2019-06-20T00:27:18.282Z,18.26
2019-06-20T00:30:25.710Z,18.24
2019-06-20T00:33:32.939Z,18.24
2019-06-20T00:36:52.811Z,18.25
2019-06-20T00:39:59.847Z,18.20
2019-06-20T00:43:16.897Z,18.19
2019-06-20T00:46:28.124Z,18.20
2019-06-20T00:49:35.331Z,18.08
2019-06-20T00:52:42.647Z,18.10
2019-06-20T00:56:00.918Z,18.15
2019-06-20T00:59:26.126Z,18.11
2019-06-20T01:02:45.440Z,18.08
2019-06-20T01:06:10.341Z,18.03
2019-06-20T01:09:29.079Z,18.02
2019-06-20T01:12:54.336Z,17.97
2019-06-20T01:16:01.696Z,17.92
2019-06-20T01:19:26.807Z,17.94
2019-06-20T01:22:34.070Z,17.88
2019-06-20T01:25:59.353Z,17.90
2019-06-20T01:29:19.092Z,17.88
2019-06-20T01:32:26.328Z,17.84
2019-06-20T01:35:46.620Z,17.83
2019-06-20T01:38:53.918Z,17.76
2019-06-20T01:42:01.210Z,17.75
2019-06-20T01:45:08.844Z,17.73
2019-06-20T01:48:16.125Z,17.69
2019-06-20T01:51:23.499Z,17.67
2019-06-20T01:54:30.815Z,17.67
2019-06-20T01:57:49.672Z,17.62
2019-06-20T02:00:57.150Z,17.56
2019-06-20T02:04:16.249Z,17.58
2019-06-20T02:07:41.544Z,17.53
2019-06-20T02:11:00.367Z,17.52
2019-06-20T02:14:26.134Z,17.47
2019-06-20T02:17:44.955Z,17.44
2019-06-20T02:21:04.480Z,17.42
2019-06-20T02:24:30.011Z,17.38
2019-06-20T02:27:54.221Z,17.35
2019-06-20T02:31:20.068Z,17.33
2019-06-20T02:34:27.387Z,17.25
2019-06-20T02:37:46.351Z,17.30
2019-06-20T02:41:05.520Z,17.28
2019-06-20T02:44:31.092Z,17.26
2019-06-20T02:47:38.642Z,17.17
2019-06-20T02:50:46.002Z,17.18
2019-06-20T02:53:53.693Z,17.13
2019-06-20T02:57:01.047Z,17.15
2019-06-20T03:00:09.032Z,17.14
2019-06-20T03:03:16.396Z,17.11
2019-06-20T03:06:22.636Z,17.11
2019-06-20T03:09:29.920Z,17.11
2019-06-20T03:12:48.689Z,17.14
2019-06-20T03:16:07.949Z,17.12
2019-06-20T03:19:26.773Z,17.11
2019-06-20T03:22:34.052Z,17.10
2019-06-20T03:25:58.779Z,17.14
2019-06-20T03:29:06.135Z,17.11
2019-06-20T03:32:24.290Z,17.17
2019-06-20T03:35:31.657Z,17.12
2019-06-20T03:38:57.388Z,17.21
2019-06-20T03:42:16.481Z,17.23
2019-06-20T03:45:23.786Z,17.19
2019-06-20T03:48:49.195Z,17.25
2019-06-20T03:51:56.664Z,17.21
2019-06-20T03:55:04.233Z,17.23
2019-06-20T03:58:11.501Z,17.25
2019-06-20T04:01:18.816Z,17.38
2019-06-20T04:04:26.103Z,17.47
2019-06-20T04:07:33.485Z,17.51
2019-06-20T04:10:40.978Z,17.53
2019-06-20T04:13:48.122Z,17.57
2019-06-20T04:16:53.773Z,17.58
2019-06-20T04:20:01.289Z,17.60
2019-06-20T04:23:20.490Z,17.66
2019-06-20T04:26:42.816Z,17.67
2019-06-20T04:30:08.392Z,17.68
2019-06-20T04:33:15.802Z,17.65
2019-06-20T04:36:23.132Z,17.68
2019-06-20T04:39:30.329Z,17.68
2019-06-20T04:42:37.757Z,17.70
2019-06-20T04:46:02.944Z,17.73
2019-06-20T04:49:10.234Z,17.76
2019-06-20T04:52:17.654Z,17.77
2019-06-20T04:55:43.004Z,17.86
2019-06-20T04:59:01.831Z,17.89
2019-06-20T05:02:07.639Z,17.87
2019-06-20T05:05:34.231Z,17.96
2019-06-20T05:08:53.337Z,17.99
2019-06-20T05:12:00.723Z,17.98
2019-06-20T05:15:20.139Z,18.08
2019-06-20T05:18:42.752Z,18.12
2019-06-20T05:22:01.025Z,18.17
2019-06-20T05:25:08.481Z,18.17
2019-06-20T05:28:28.103Z,18.25
2019-06-20T05:31:53.507Z,18.32
2019-06-20T05:35:12.521Z,18.34
2019-06-20T05:38:30.664Z,18.36
2019-06-20T05:41:55.994Z,18.42
2019-06-20T05:45:02.046Z,18.40
2019-06-20T05:48:09.321Z,18.44
2019-06-20T05:51:16.684Z,18.49
2019-06-20T05:54:23.872Z,18.53
2019-06-20T05:57:31.451Z,18.58
2019-06-20T06:00:38.777Z,18.62
2019-06-20T06:03:46.190Z,18.70
2019-06-20T06:06:53.519Z,18.77
2019-06-20T06:10:18.970Z,18.87
2019-06-20T06:13:44.085Z,18.95
2019-06-20T06:16:51.437Z,18.99
2019-06-20T06:19:58.176Z,19.07
2019-06-20T06:23:05.584Z,19.13
2019-06-20T06:26:12.987Z,19.19
2019-06-20T06:29:38.310Z,19.30
2019-06-20T06:32:57.413Z,19.34
2019-06-20T06:36:04.798Z,19.36
2019-06-20T06:39:23.481Z,19.47
2019-06-20T06:42:48.725Z,19.52
2019-06-20T06:45:56.042Z,19.54
2019-06-20T06:49:15.346Z,19.64
2019-06-20T06:52:40.571Z,19.67
2019-06-20T06:56:00.427Z,19.71
2019-06-20T06:59:20.204Z,19.77
2019-06-20T07:02:39.264Z,19.82
2019-06-20T07:05:58.408Z,19.87
2019-06-20T07:09:08.645Z,19.85
2019-06-20T07:12:18.382Z,19.88
2019-06-20T07:15:25.993Z,19.93
2019-06-20T07:18:33.345Z,19.96
2019-06-20T07:21:40.768Z,19.98
2019-06-20T07:24:48.098Z,19.95
2019-06-20T07:28:12.920Z,20.07
2019-06-20T07:31:32.737Z,20.07
2019-06-20T07:34:58.358Z,19.99
2019-06-20T07:38:05.818Z,19.95
2019-06-20T07:41:31.433Z,20.00
2019-06-20T07:44:56.228Z,19.95
2019-06-20T07:48:03.615Z,19.90
2019-06-20T07:51:28.180Z,19.96
2019-06-20T07:54:48.076Z,19.91
2019-06-20T07:57:55.460Z,19.95
2019-06-20T08:01:21.033Z,20.00
2019-06-20T08:04:28.421Z,19.93
2019-06-20T08:07:47.652Z,19.90
2019-06-20T08:11:06.464Z,19.81
2019-06-20T08:14:25.702Z,19.83
2019-06-20T08:17:45.152Z,19.80
2019-06-20T08:20:50.854Z,19.75
2019-06-20T08:24:09.920Z,19.82
2019-06-20T08:27:18.818Z,19.80
2019-06-20T08:30:45.991Z,19.82
2019-06-20T08:33:51.594Z,19.79
2019-06-20T08:37:16.794Z,19.83
2019-06-20T08:40:24.953Z,19.77
2019-06-20T08:43:32.292Z,19.80
2019-06-20T08:46:39.603Z,19.78
2019-06-20T08:49:46.923Z,19.85
2019-06-20T08:52:56.143Z,19.89
2019-06-20T08:56:03.199Z,19.94
2019-06-20T08:59:24.816Z,20.02
2019-06-20T09:02:42.998Z,20.09
2019-06-20T09:09:21.628Z,20.17
2019-06-20T09:12:39.896Z,20.22
2019-06-20T09:15:59.167Z,20.35
2019-06-20T09:19:06.513Z,20.32
2019-06-20T09:22:26.162Z,20.26
2019-06-20T09:25:33.452Z,20.22
2019-06-20T09:28:55.715Z,20.26
2019-06-20T09:32:12.795Z,20.28
2019-06-20T09:35:31.854Z,20.33
2019-06-20T09:38:57.902Z,20.32
2019-06-20T09:42:24.479Z,20.33
2019-06-20T09:45:31.966Z,20.30
2019-06-20T09:48:52.412Z,20.35
2019-06-20T09:52:11.334Z,20.45
2019-06-20T09:55:30.678Z,20.43
2019-06-20T09:58:49.571Z,20.44
2019-06-20T10:01:58.774Z,20.43
2019-06-20T10:05:06.632Z,20.48
2019-06-20T10:08:25.412Z,20.53
2019-06-20T10:11:45.331Z,20.56
2019-06-20T10:14:56.072Z,20.54
2019-06-20T10:18:02.527Z,20.55
2019-06-20T10:21:22.006Z,20.59
2019-06-20T10:24:47.491Z,20.58
2019-06-20T10:28:07.345Z,20.58
2019-06-20T10:31:32.313Z,20.54
2019-06-20T10:34:52.724Z,20.56
2019-06-20T10:38:00.197Z,20.42
2019-06-20T10:41:07.524Z,20.41
2019-06-20T10:44:33.512Z,20.42
2019-06-20T10:47:58.714Z,20.35
2019-06-20T10:51:23.647Z,20.33
2019-06-20T10:54:47.179Z,20.30
2019-06-20T10:58:04.512Z,20.36
2019-06-20T11:01:12.026Z,20.36
2019-06-20T11:04:19.569Z,20.40
2019-06-20T11:07:27.526Z,20.49
2019-06-20T11:10:52.460Z,20.53
2019-06-20T11:14:11.718Z,20.56
2019-06-20T11:17:19.109Z,20.52
2019-06-20T11:20:44.460Z,20.59
2019-06-20T11:24:05.274Z,20.63
2019-06-20T11:27:24.032Z,20.69
2019-06-20T11:30:48.159Z,20.73
2019-06-20T11:33:44.121Z,20.83
2019-06-20T11:36:52.097Z,20.95
2019-06-20T11:39:59.756Z,21.02
2019-06-20T11:43:07.222Z,21.09
2019-06-20T11:46:14.702Z,21.12
2019-06-20T11:49:34.706Z,21.24
2019-06-20T11:52:53.987Z,21.32
2019-06-20T11:56:19.287Z,21.34
2019-06-20T11:59:26.612Z,21.34
2019-06-20T12:02:46.182Z,21.43
2019-06-20T12:05:53.878Z,21.42
2019-06-20T12:09:01.217Z,21.47
2019-06-20T12:12:08.502Z,21.55
2019-06-20T12:15:33.391Z,21.63
2019-06-20T12:18:58.033Z,21.68
2019-06-20T12:22:05.419Z,21.66
2019-06-20T12:25:26.029Z,21.71
2019-06-20T12:28:33.322Z,21.66
2019-06-20T12:31:41.078Z,21.66
2019-06-20T12:35:05.924Z,21.72
2019-06-20T12:38:15.126Z,21.71
2019-06-20T12:41:22.244Z,21.78
2019-06-20T12:44:29.504Z,21.79
2019-06-20T12:47:38.229Z,21.81
2019-06-20T12:50:45.749Z,21.88
2019-06-20T12:53:52.969Z,21.96
2019-06-20T12:57:00.458Z,21.95
2019-06-20T13:00:07.984Z,21.97
2019-06-20T13:03:33.090Z,22.00
2019-06-20T13:06:40.578Z,21.94
2019-06-20T13:09:59.788Z,22.05
2019-06-20T13:13:06.467Z,22.02
2019-06-20T13:16:13.746Z,22.05
2019-06-20T13:19:21.251Z,21.93
2019-06-20T13:22:41.364Z,21.92
2019-06-20T13:25:48.733Z,21.84
2019-06-20T13:29:08.125Z,21.74
2019-06-20T13:32:15.377Z,21.68
2019-06-20T13:35:41.870Z,21.83
2019-06-20T13:39:01.081Z,21.81
2019-06-20T13:42:19.726Z,21.81
2019-06-20T13:45:27.388Z,21.79
2019-06-20T13:48:47.429Z,21.88
2019-06-20T13:51:54.834Z,21.88
2019-06-20T13:55:02.159Z,21.93
2019-06-20T13:58:09.468Z,21.96
2019-06-20T14:01:16.824Z,21.99
2019-06-20T14:04:36.530Z,22.08
2019-06-20T14:07:59.146Z,22.12
2019-06-20T14:11:17.714Z,22.15
2019-06-20T14:14:43.999Z,22.19
2019-06-20T14:17:51.819Z,22.15
2019-06-20T14:21:11.184Z,22.24
2019-06-20T14:24:19.837Z,22.24
2019-06-20T14:27:27.179Z,22.29
2019-06-20T14:30:52.972Z,22.41
2019-06-20T14:34:18.319Z,22.48
2019-06-20T14:37:37.640Z,22.55
2019-06-20T14:41:02.872Z,22.63
2019-06-20T14:44:21.572Z,22.72
2019-06-20T14:47:28.823Z,22.74
2019-06-20T14:50:55.504Z,22.86
2019-06-20T14:54:14.011Z,22.96
2019-06-20T14:57:39.310Z,23.06
2019-06-20T15:00:58.646Z,23.18
2019-06-20T15:04:18.854Z,23.31
2019-06-20T15:07:38.681Z,23.40
2019-06-20T15:10:57.870Z,23.45
2019-06-20T15:14:23.837Z,23.43
2019-06-20T15:17:43.280Z,23.41
2019-06-20T15:20:51.983Z,23.35
2019-06-20T15:23:59.882Z,23.34
2019-06-20T15:27:07.261Z,23.35
2019-06-20T15:30:14.672Z,23.35
2019-06-20T15:33:22.462Z,23.36
2019-06-20T15:36:48.624Z,23.43
2019-06-20T15:40:13.680Z,23.46
2019-06-20T15:43:32.747Z,23.47
2019-06-20T15:46:57.660Z,23.47
2019-06-20T15:50:16.904Z,23.45
2019-06-20T15:53:42.164Z,23.42
2019-06-20T15:57:06.564Z,23.39
2019-06-20T16:00:26.495Z,23.33
2019-06-20T16:03:33.878Z,23.23
2019-06-20T16:06:39.838Z,23.19
2019-06-20T16:09:47.247Z,23.13
2019-06-20T16:12:54.726Z,23.09
2019-06-20T16:16:13.387Z,23.08
2019-06-20T16:19:32.072Z,23.06
2019-06-20T16:22:39.472Z,23.00
2019-06-20T16:26:04.774Z,23.01
2019-06-20T16:29:11.000Z,22.94
2019-06-20T16:32:18.440Z,22.92
2019-06-20T16:35:25.819Z,22.90
2019-06-20T16:38:33.430Z,22.87
2019-06-20T16:41:53.948Z,22.86
2019-06-20T16:45:01.780Z,22.79
2019-06-20T16:48:26.905Z,22.78
2019-06-20T16:51:45.591Z,22.76
2019-06-20T16:54:52.892Z,22.70
2019-06-20T16:58:12.171Z,22.67
2019-06-20T17:01:38.034Z,22.57
2019-06-20T17:05:02.843Z,22.57
2019-06-20T17:08:28.532Z,22.54
2019-06-20T17:11:53.966Z,22.50
2019-06-20T17:15:12.791Z,22.45
2019-06-20T17:18:37.752Z,22.42
2019-06-20T17:22:03.563Z,22.36
2019-06-20T17:25:23.303Z,22.27
2019-06-20T17:28:28.976Z,22.22
2019-06-20T17:31:47.698Z,22.22
2019-06-20T17:34:54.979Z,22.14
2019-06-20T17:38:14.457Z,22.14
2019-06-20T17:41:34.301Z,22.09
2019-06-20T17:44:58.999Z,22.01
2019-06-20T17:48:06.282Z,21.92
2019-06-20T17:51:25.363Z,21.93
2019-06-20T17:54:50.818Z,21.81
2019-06-20T17:58:14.996Z,21.81
2019-06-20T18:01:22.287Z,21.69
2019-06-20T18:04:41.477Z,21.63
2019-06-20T18:08:14.087Z,21.51
2019-06-20T18:11:08.701Z,21.40
2019-06-20T18:14:27.516Z,21.40
2019-06-20T18:17:35.729Z,21.32
2019-06-20T18:20:55.477Z,21.33
2019-06-20T18:24:02.721Z,21.25
2019-06-20T18:27:22.116Z,21.24
2019-06-20T18:30:44.450Z,21.13
2019-06-20T18:33:51.654Z,21.01
2019-06-20T18:36:59.069Z,21.01
2019-06-20T18:40:07.180Z,20.95
2019-06-20T18:43:14.716Z,20.89
2019-06-20T18:46:33.323Z,20.89
2019-06-20T18:49:51.511Z,20.85
2019-06-20T18:53:16.205Z,20.77
2019-06-20T18:56:23.534Z,20.69
2019-06-20T18:59:32.658Z,20.62
2019-06-20T19:02:38.747Z,20.51
2019-06-20T19:05:46.154Z,20.45
2019-06-20T19:08:53.534Z,20.37
2019-06-20T19:12:00.825Z,20.28
2019-06-20T19:15:07.251Z,20.21
2019-06-20T19:18:15.693Z,20.12
2019-06-20T19:21:34.755Z,20.10
2019-06-20T19:24:59.559Z,20.01
2019-06-20T19:28:24.322Z,19.95
2019-06-20T19:31:44.134Z,19.85
2019-06-20T19:35:10.397Z,19.79
2019-06-20T19:38:18.197Z,19.68
2019-06-20T19:41:25.665Z,19.61
2019-06-20T19:44:33.020Z,19.57
2019-06-20T19:47:40.492Z,19.53
2019-06-20T19:50:59.748Z,19.55
2019-06-20T19:54:25.210Z,19.50
2019-06-20T19:57:35.359Z,19.41
2019-06-20T20:00:42.737Z,19.38
2019-06-20T20:04:08.996Z,19.37
2019-06-20T20:07:16.309Z,19.29
2019-06-20T20:10:32.759Z,19.27
2019-06-20T20:13:40.217Z,19.24
2019-06-20T20:16:47.793Z,19.22
2019-06-20T20:19:55.266Z,19.22
2019-06-20T20:23:20.454Z,19.23
2019-06-20T20:26:39.702Z,19.22
2019-06-20T20:29:47.010Z,19.19
2019-06-20T20:33:06.650Z,19.20
2019-06-20T20:36:31.253Z,19.18
2019-06-20T20:39:56.683Z,19.20
2019-06-20T20:43:15.811Z,19.16
2019-06-20T20:46:23.248Z,19.13
2019-06-20T20:49:48.255Z,19.14
2019-06-20T20:52:55.668Z,19.07
2019-06-20T20:56:14.896Z,19.08
2019-06-20T20:59:40.743Z,19.06
2019-06-20T21:03:07.413Z,19.06
2019-06-20T21:06:14.758Z,18.98
2019-06-20T21:09:34.614Z,18.98
2019-06-20T21:13:00.316Z,18.97
2019-06-20T21:16:07.300Z,18.89
2019-06-20T21:19:14.662Z,18.90
2019-06-20T21:22:21.889Z,18.88
2019-06-20T21:25:32.197Z,18.85
2019-06-20T21:28:49.928Z,18.89
2019-06-20T21:31:57.382Z,18.82
2019-06-20T21:35:16.797Z,18.82
2019-06-20T21:38:35.303Z,18.80
2019-06-20T21:41:42.635Z,18.75
2019-06-20T21:45:02.499Z,18.79
2019-06-20T21:48:27.660Z,18.76
2019-06-20T21:51:35.030Z,18.77
2019-06-20T21:55:00.308Z,18.88
2019-06-20T21:58:19.504Z,18.78
2019-06-20T22:01:26.818Z,18.66
2019-06-20T22:04:33.358Z,18.66
2019-06-20T22:07:40.839Z,18.61
2019-06-20T22:10:48.178Z,18.55
2019-06-20T22:13:55.437Z,18.48
2019-06-20T22:17:02.850Z,18.43
2019-06-20T22:20:23.346Z,18.45
2019-06-20T22:23:30.538Z,18.34
2019-06-20T22:26:37.855Z,18.32
2019-06-20T22:29:45.051Z,18.29
2019-06-20T22:32:52.625Z,18.24
2019-06-20T22:35:59.865Z,18.19
2019-06-20T22:39:08.231Z,18.15
2019-06-20T22:42:15.444Z,18.18
2019-06-20T22:45:22.848Z,18.14
2019-06-20T22:48:30.237Z,18.14
2019-06-20T22:51:37.570Z,18.10
2019-06-20T22:54:44.877Z,18.06
2019-06-20T22:57:52.180Z,18.01
2019-06-20T23:01:12.054Z,18.03
2019-06-20T23:04:37.741Z,17.97
2019-06-20T23:07:56.923Z,17.94
2019-06-20T23:11:06.434Z,17.89
2019-06-20T23:14:15.283Z,17.92
2019-06-20T23:17:22.575Z,17.94
2019-06-20T23:20:29.914Z,17.86
2019-06-20T23:23:36.477Z,17.81
2019-06-20T23:26:54.494Z,17.82
2019-06-20T23:30:14.903Z,17.76
2019-06-20T23:33:22.316Z,17.69
2019-06-20T23:36:29.450Z,17.64
2019-06-20T23:39:36.839Z,17.58
2019-06-20T23:42:56.326Z,17.60
2019-06-20T23:46:14.764Z,17.59
2019-06-20T23:49:33.455Z,17.59
2019-06-20T23:52:42.391Z,17.53
2019-06-20T23:56:09.006Z,17.53
2019-06-20T23:59:27.849Z,17.51
